createdAt,value
2023-09-30T00:12:16.202Z,306.18
2023-09-30T00:19:21.894Z,306.50
2023-09-30T00:31:11.458Z,306.36
2023-09-30T00:48:48.102Z,305.20
2023-09-30T01:18:03.178Z,306.28
2023-09-30T01:24:56.619Z,306.94
2023-09-30T01:30:26.388Z,307.64
2023-09-30T01:51:31.905Z,308.85
2023-09-30T01:56:46.060Z,309.39
2023-09-30T02:03:35.930Z,309.96
2023-09-30T02:08:44.347Z,309.56
2023-09-30T02:14:04.420Z,309.34
2023-09-30T02:20:01.836Z,309.41
2023-09-30T02:25:49.974Z,309.07
2023-09-30T02:36:53.565Z,309.22
2023-09-30T02:42:46.713Z,310.24
2023-09-30T02:48:01.672Z,310.47
2023-09-30T02:54:11.876Z,311.06
2023-09-30T03:06:20.263Z,310.27
2023-09-30T03:15:38.621Z,310.69
2023-09-30T03:26:43.289Z,310.35
2023-09-30T03:32:40.587Z,310.43
2023-09-30T03:38:31.855Z,309.65
2023-09-30T03:44:15.849Z,309.37
2023-09-30T03:50:02.301Z,309.65
2023-09-30T03:55:53.934Z,309.53
2023-09-30T04:01:41.722Z,308.75
2023-09-30T04:07:43.383Z,308.47
2023-09-30T04:18:29.154Z,308.47
2023-09-30T04:30:03.429Z,307.84
2023-09-30T04:35:50.900Z,308.27
2023-09-30T04:41:35.797Z,309.55
2023-09-30T04:53:16.679Z,310.33
2023-09-30T04:57:49.584Z,310.51
2023-09-30T05:03:09.619Z,309.85
2023-09-30T05:08:52.121Z,308.58
2023-09-30T05:15:16.570Z,307.59
2023-09-30T05:20:05.240Z,307.98
2023-09-30T05:25:52.602Z,308.27
2023-09-30T05:33:40.810Z,307.63
2023-09-30T05:44:47.567Z,305.87
2023-09-30T05:50:54.372Z,305.60
2023-09-30T05:56:45.719Z,305.43
2023-09-30T06:02:49.414Z,305.88
2023-09-30T06:08:24.506Z,305.23
2023-09-30T06:14:07.251Z,304.80
2023-09-30T06:20:10.234Z,304.04
2023-09-30T06:25:54.223Z,303.54
2023-09-30T06:38:14.874Z,303.60
2023-09-30T06:44:03.372Z,302.14
2023-09-30T06:49:57.169Z,301.38
2023-09-30T06:55:15.662Z,301.32
2023-09-30T07:00:46.241Z,302.28
2023-09-30T07:07:10.085Z,301.36
2023-09-30T07:11:20.991Z,300.19
2023-09-30T07:16:12.778Z,300.81
2023-09-30T07:21:20.030Z,299.44
2023-09-30T07:26:27.295Z,299.52
2023-09-30T07:31:34.868Z,299.03
2023-09-30T07:36:42.147Z,299.93
2023-09-30T07:41:49.489Z,300.75
2023-09-30T07:46:57.114Z,300.00
2023-09-30T07:52:05.045Z,299.42
2023-09-30T07:57:20.056Z,296.53
2023-09-30T08:02:42.251Z,296.54
2023-09-30T08:07:49.574Z,295.91
2023-09-30T22:10:44.933Z,299.27
2023-09-30T22:15:52.150Z,298.96
2023-09-30T22:20:59.294Z,299.03
2023-09-30T22:26:06.469Z,299.15
2023-09-30T22:31:13.618Z,299.15
2023-09-30T22:36:23.358Z,298.53
2023-09-30T22:41:27.884Z,297.97
2023-09-30T22:46:35.186Z,297.94
2023-09-30T22:51:42.207Z,298.36
2023-09-30T22:56:49.480Z,297.57
2023-09-30T23:01:56.648Z,297.69
2023-09-30T23:07:03.812Z,297.81
2023-09-30T23:12:10.924Z,297.74
2023-09-30T23:17:18.148Z,296.77
2023-09-30T23:22:25.404Z,296.71
2023-09-30T23:27:32.632Z,296.41
2023-09-30T23:32:39.851Z,295.87
2023-09-30T23:37:46.994Z,296.14
2023-09-30T23:42:54.253Z,296.27
2023-09-30T23:48:01.626Z,296.14
2023-09-30T23:53:08.691Z,296.42
2023-09-30T23:58:16.059Z,296.45
